sensor_id;sensor_type;location;lat;lon;timestamp;P1;durP1;ratioP1;P2;durP2;ratioP2
65572;SDS011;52214;50.940;13.996;2023-03-31T00:00:27;2.60;;;0.90;;
65572;SDS011;52214;50.940;13.996;2023-03-31T00:02:53;3.07;;;1.07;;
65572;SDS011;52214;50.940;13.996;2023-03-31T00:05:20;3.10;;;1.00;;
65572;SDS011;52214;50.940;13.996;2023-03-31T00:07:56;2.95;;;1.00;;
65572;SDS011;52214;50.940;13.996;2023-03-31T00:10:27;3.33;;;1.07;;
65572;SDS011;52214;50.940;13.996;2023-03-31T00:12:53;2.65;;;1.02;;
65572;SDS011;52214;50.940;13.996;2023-03-31T00:15:19;3.92;;;1.20;;
65572;SDS011;52214;50.940;13.996;2023-03-31T00:17:45;2.60;;;1.00;;
65572;SDS011;52214;50.940;13.996;2023-03-31T00:20:11;2.83;;;0.85;;
65572;SDS011;52214;50.940;13.996;2023-03-31T00:22:39;2.72;;;1.10;;
65572;SDS011;52214;50.940;13.996;2023-03-31T00:25:12;3.35;;;1.00;;
65572;SDS011;52214;50.940;13.996;2023-03-31T00:27:40;2.67;;;0.90;;
65572;SDS011;52214;50.940;13.996;2023-03-31T00:30:08;2.40;;;0.90;;
65572;SDS011;52214;50.940;13.996;2023-03-31T00:32:34;2.50;;;0.82;;
65572;SDS011;52214;50.940;13.996;2023-03-31T00:35:00;2.70;;;1.00;;
65572;SDS011;52214;50.940;13.996;2023-03-31T00:37:27;2.55;;;0.90;;
65572;SDS011;52214;50.940;13.996;2023-03-31T00:39:54;2.88;;;1.00;;
65572;SDS011;52214;50.940;13.996;2023-03-31T00:42:19;3.00;;;1.10;;
65572;SDS011;52214;50.940;13.996;2023-03-31T00:52:44;3.78;;;1.35;;
65572;SDS011;52214;50.940;13.996;2023-03-31T00:55:13;3.28;;;1.00;;
65572;SDS011;52214;50.940;13.996;2023-03-31T00:57:43;2.55;;;0.88;;
65572;SDS011;52214;50.940;13.996;2023-03-31T01:00:11;2.60;;;0.97;;
65572;SDS011;52214;50.940;13.996;2023-03-31T01:02:41;2.80;;;1.00;;
65572;SDS011;52214;50.940;13.996;2023-03-31T01:05:17;3.78;;;1.00;;
65572;SDS011;52214;50.940;13.996;2023-03-31T01:07:45;3.28;;;1.25;;
65572;SDS011;52214;50.940;13.996;2023-03-31T01:10:14;2.90;;;1.10;;
65572;SDS011;52214;50.940;13.996;2023-03-31T01:12:40;3.07;;;1.00;;
65572;SDS011;52214;50.940;13.996;2023-03-31T01:15:10;2.65;;;0.93;;
65572;SDS011;52214;50.940;13.996;2023-03-31T01:17:37;2.80;;;0.93;;
65572;SDS011;52214;50.940;13.996;2023-03-31T01:28:54;3.00;;;1.02;;
65572;SDS011;52214;50.940;13.996;2023-03-31T01:39:44;3.20;;;1.03;;
65572;SDS011;52214;50.940;13.996;2023-03-31T01:42:38;4.32;;;1.00;;
65572;SDS011;52214;50.940;13.996;2023-03-31T01:45:17;3.30;;;1.00;;
65572;SDS011;52214;50.940;13.996;2023-03-31T01:53:02;3.10;;;1.13;;
65572;SDS011;52214;50.940;13.996;2023-03-31T01:55:40;3.15;;;1.10;;
65572;SDS011;52214;50.940;13.996;2023-03-31T01:58:17;3.15;;;1.02;;
65572;SDS011;52214;50.940;13.996;2023-03-31T02:00:49;2.92;;;0.93;;
65572;SDS011;52214;50.940;13.996;2023-03-31T02:03:27;3.65;;;1.30;;
65572;SDS011;52214;50.940;13.996;2023-03-31T02:05:59;2.67;;;0.90;;
65572;SDS011;52214;50.940;13.996;2023-03-31T02:08:36;3.28;;;1.25;;
65572;SDS011;52214;50.940;13.996;2023-03-31T02:11:06;3.65;;;1.10;;
65572;SDS011;52214;50.940;13.996;2023-03-31T02:13:31;3.53;;;1.00;;
65572;SDS011;52214;50.940;13.996;2023-03-31T02:16:02;3.65;;;1.00;;
65572;SDS011;52214;50.940;13.996;2023-03-31T02:18:33;2.83;;;0.93;;
65572;SDS011;52214;50.940;13.996;2023-03-31T02:21:02;2.95;;;0.90;;
65572;SDS011;52214;50.940;13.996;2023-03-31T02:23:35;3.47;;;1.00;;
65572;SDS011;52214;50.940;13.996;2023-03-31T02:26:05;2.77;;;0.93;;
65572;SDS011;52214;50.940;13.996;2023-03-31T02:28:35;3.20;;;1.00;;
65572;SDS011;52214;50.940;13.996;2023-03-31T02:39:03;3.40;;;1.20;;
65572;SDS011;52214;50.940;13.996;2023-03-31T02:41:32;2.40;;;1.00;;
65572;SDS011;52214;50.940;13.996;2023-03-31T02:43:58;3.63;;;1.10;;
65572;SDS011;52214;50.940;13.996;2023-03-31T02:46:24;3.00;;;1.00;;
65572;SDS011;52214;50.940;13.996;2023-03-31T02:48:52;3.03;;;1.20;;
65572;SDS011;52214;50.940;13.996;2023-03-31T03:10:59;3.85;;;1.10;;
65572;SDS011;52214;50.940;13.996;2023-03-31T03:18:58;3.33;;;1.00;;
65572;SDS011;52214;50.940;13.996;2023-03-31T03:21:26;3.13;;;1.00;;
65572;SDS011;52214;50.940;13.996;2023-03-31T03:23:52;3.00;;;1.02;;
65572;SDS011;52214;50.940;13.996;2023-03-31T03:26:19;3.50;;;1.17;;
65572;SDS011;52214;50.940;13.996;2023-03-31T03:28:48;3.45;;;0.95;;
65572;SDS011;52214;50.940;13.996;2023-03-31T03:31:15;3.10;;;1.00;;
65572;SDS011;52214;50.940;13.996;2023-03-31T03:33:41;2.80;;;1.10;;
65572;SDS011;52214;50.940;13.996;2023-03-31T03:36:07;2.80;;;1.00;;
65572;SDS011;52214;50.940;13.996;2023-03-31T03:38:34;3.73;;;1.20;;
65572;SDS011;52214;50.940;13.996;2023-03-31T03:41:01;3.00;;;0.90;;
65572;SDS011;52214;50.940;13.996;2023-03-31T03:43:27;3.13;;;1.00;;
65572;SDS011;52214;50.940;13.996;2023-03-31T03:45:53;3.45;;;1.00;;
65572;SDS011;52214;50.940;13.996;2023-03-31T03:48:18;3.50;;;1.20;;
65572;SDS011;52214;50.940;13.996;2023-03-31T03:50:45;2.63;;;0.90;;
65572;SDS011;52214;50.940;13.996;2023-03-31T03:53:12;2.92;;;1.05;;
65572;SDS011;52214;50.940;13.996;2023-03-31T03:55:39;2.90;;;1.00;;
65572;SDS011;52214;50.940;13.996;2023-03-31T03:58:06;3.33;;;1.00;;
65572;SDS011;52214;50.940;13.996;2023-03-31T04:00:32;2.63;;;0.90;;
65572;SDS011;52214;50.940;13.996;2023-03-31T04:02:58;4.53;;;1.20;;
65572;SDS011;52214;50.940;13.996;2023-03-31T04:05:24;3.33;;;1.17;;
65572;SDS011;52214;50.940;13.996;2023-03-31T04:07:50;2.92;;;1.10;;
65572;SDS011;52214;50.940;13.996;2023-03-31T04:10:15;2.60;;;1.00;;
65572;SDS011;52214;50.940;13.996;2023-03-31T04:12:41;2.90;;;1.00;;
65572;SDS011;52214;50.940;13.996;2023-03-31T04:15:07;2.87;;;1.13;;
65572;SDS011;52214;50.940;13.996;2023-03-31T04:17:33;2.80;;;1.00;;
65572;SDS011;52214;50.940;13.996;2023-03-31T04:20:02;3.00;;;1.10;;
65572;SDS011;52214;50.940;13.996;2023-03-31T04:22:31;3.00;;;1.00;;
65572;SDS011;52214;50.940;13.996;2023-03-31T04:25:01;2.90;;;1.13;;
65572;SDS011;52214;50.940;13.996;2023-03-31T04:27:27;2.65;;;0.98;;
65572;SDS011;52214;50.940;13.996;2023-03-31T04:29:55;2.92;;;0.90;;
65572;SDS011;52214;50.940;13.996;2023-03-31T04:32:21;3.00;;;1.00;;
65572;SDS011;52214;50.940;13.996;2023-03-31T04:34:48;3.13;;;1.05;;
65572;SDS011;52214;50.940;13.996;2023-03-31T04:37:15;2.70;;;1.00;;
65572;SDS011;52214;50.940;13.996;2023-03-31T04:39:41;3.40;;;1.10;;
65572;SDS011;52214;50.940;13.996;2023-03-31T04:42:11;2.80;;;1.00;;
65572;SDS011;52214;50.940;13.996;2023-03-31T04:44:37;3.13;;;1.10;;
65572;SDS011;52214;50.940;13.996;2023-03-31T04:47:03;3.00;;;1.08;;
65572;SDS011;52214;50.940;13.996;2023-03-31T04:49:31;3.25;;;1.08;;
65572;SDS011;52214;50.940;13.996;2023-03-31T04:51:57;2.70;;;1.00;;
65572;SDS011;52214;50.940;13.996;2023-03-31T04:54:23;3.20;;;1.20;;
65572;SDS011;52214;50.940;13.996;2023-03-31T04:56:49;3.55;;;0.93;;
65572;SDS011;52214;50.940;13.996;2023-03-31T04:59:15;2.70;;;0.90;;
65572;SDS011;52214;50.940;13.996;2023-03-31T05:01:41;2.70;;;1.00;;
65572;SDS011;52214;50.940;13.996;2023-03-31T05:04:09;3.28;;;1.13;;
65572;SDS011;52214;50.940;13.996;2023-03-31T05:06:36;3.50;;;1.10;;
65572;SDS011;52214;50.940;13.996;2023-03-31T05:09:01;3.53;;;1.30;;
65572;SDS011;52214;50.940;13.996;2023-03-31T05:11:27;2.85;;;0.80;;
65572;SDS011;52214;50.940;13.996;2023-03-31T05:13:56;3.03;;;1.10;;
65572;SDS011;52214;50.940;13.996;2023-03-31T05:16:21;2.80;;;1.00;;
65572;SDS011;52214;50.940;13.996;2023-03-31T05:18:47;2.90;;;0.88;;
65572;SDS011;52214;50.940;13.996;2023-03-31T05:21:14;2.53;;;0.90;;
65572;SDS011;52214;50.940;13.996;2023-03-31T05:23:41;2.95;;;0.80;;
65572;SDS011;52214;50.940;13.996;2023-03-31T05:26:08;3.40;;;1.07;;
65572;SDS011;52214;50.940;13.996;2023-03-31T05:28:35;3.50;;;1.20;;
65572;SDS011;52214;50.940;13.996;2023-03-31T05:31:01;3.10;;;0.90;;
65572;SDS011;52214;50.940;13.996;2023-03-31T05:33:29;2.83;;;0.90;;
65572;SDS011;52214;50.940;13.996;2023-03-31T05:35:55;2.65;;;0.90;;
65572;SDS011;52214;50.940;13.996;2023-03-31T05:38:21;2.90;;;0.80;;
65572;SDS011;52214;50.940;13.996;2023-03-31T05:40:47;2.67;;;1.00;;
65572;SDS011;52214;50.940;13.996;2023-03-31T05:43:13;2.65;;;0.80;;
65572;SDS011;52214;50.940;13.996;2023-03-31T05:45:39;3.67;;;0.97;;
65572;SDS011;52214;50.940;13.996;2023-03-31T05:48:05;2.47;;;0.88;;
65572;SDS011;52214;50.940;13.996;2023-03-31T05:50:31;2.83;;;1.00;;
65572;SDS011;52214;50.940;13.996;2023-03-31T05:52:56;3.40;;;1.00;;
65572;SDS011;52214;50.940;13.996;2023-03-31T05:55:24;3.38;;;1.00;;
65572;SDS011;52214;50.940;13.996;2023-03-31T05:57:49;3.50;;;1.23;;
65572;SDS011;52214;50.940;13.996;2023-03-31T06:00:16;3.30;;;1.02;;
65572;SDS011;52214;50.940;13.996;2023-03-31T06:02:41;3.45;;;1.00;;
65572;SDS011;52214;50.940;13.996;2023-03-31T06:05:07;2.90;;;1.00;;
65572;SDS011;52214;50.940;13.996;2023-03-31T06:07:33;3.80;;;1.30;;
65572;SDS011;52214;50.940;13.996;2023-03-31T06:09:58;3.13;;;0.98;;
65572;SDS011;52214;50.940;13.996;2023-03-31T06:12:24;2.57;;;0.90;;
65572;SDS011;52214;50.940;13.996;2023-03-31T06:14:49;3.03;;;1.10;;
65572;SDS011;52214;50.940;13.996;2023-03-31T06:17:15;2.90;;;1.05;;
65572;SDS011;52214;50.940;13.996;2023-03-31T06:19:40;3.37;;;1.20;;
65572;SDS011;52214;50.940;13.996;2023-03-31T06:22:06;2.90;;;1.20;;
65572;SDS011;52214;50.940;13.996;2023-03-31T06:24:31;2.60;;;1.00;;
65572;SDS011;52214;50.940;13.996;2023-03-31T06:26:57;2.93;;;1.17;;
65572;SDS011;52214;50.940;13.996;2023-03-31T06:29:25;2.97;;;1.00;;
65572;SDS011;52214;50.940;13.996;2023-03-31T06:31:51;3.27;;;1.10;;
65572;SDS011;52214;50.940;13.996;2023-03-31T06:34:17;2.97;;;1.00;;
65572;SDS011;52214;50.940;13.996;2023-03-31T06:36:43;2.95;;;1.20;;
65572;SDS011;52214;50.940;13.996;2023-03-31T06:39:08;3.75;;;1.10;;
65572;SDS011;52214;50.940;13.996;2023-03-31T06:41:34;3.00;;;1.10;;
65572;SDS011;52214;50.940;13.996;2023-03-31T06:44:00;3.65;;;1.10;;
65572;SDS011;52214;50.940;13.996;2023-03-31T06:46:25;3.50;;;1.20;;
65572;SDS011;52214;50.940;13.996;2023-03-31T06:48:51;3.37;;;1.20;;
65572;SDS011;52214;50.940;13.996;2023-03-31T06:51:16;3.92;;;1.38;;
65572;SDS011;52214;50.940;13.996;2023-03-31T06:53:42;2.60;;;1.00;;
65572;SDS011;52214;50.940;13.996;2023-03-31T06:56:07;2.83;;;1.00;;
65572;SDS011;52214;50.940;13.996;2023-03-31T06:58:33;2.65;;;1.00;;
65572;SDS011;52214;50.940;13.996;2023-03-31T07:01:00;2.90;;;0.90;;
65572;SDS011;52214;50.940;13.996;2023-03-31T07:03:28;2.80;;;1.10;;
65572;SDS011;52214;50.940;13.996;2023-03-31T07:05:54;3.20;;;1.20;;
65572;SDS011;52214;50.940;13.996;2023-03-31T07:08:21;3.58;;;1.30;;
65572;SDS011;52214;50.940;13.996;2023-03-31T07:10:47;3.60;;;1.20;;
65572;SDS011;52214;50.940;13.996;2023-03-31T07:13:15;3.40;;;1.10;;
65572;SDS011;52214;50.940;13.996;2023-03-31T07:15:41;3.75;;;1.10;;
65572;SDS011;52214;50.940;13.996;2023-03-31T07:18:07;3.03;;;1.20;;
65572;SDS011;52214;50.940;13.996;2023-03-31T07:20:33;2.88;;;1.10;;
65572;SDS011;52214;50.940;13.996;2023-03-31T07:23:02;2.80;;;0.93;;
65572;SDS011;52214;50.940;13.996;2023-03-31T07:25:29;3.17;;;1.03;;
65572;SDS011;52214;50.940;13.996;2023-03-31T07:27:54;2.72;;;1.10;;
65572;SDS011;52214;50.940;13.996;2023-03-31T07:30:20;3.23;;;1.00;;
65572;SDS011;52214;50.940;13.996;2023-03-31T07:32:48;2.97;;;1.00;;
65572;SDS011;52214;50.940;13.996;2023-03-31T07:35:15;3.10;;;1.10;;
65572;SDS011;52214;50.940;13.996;2023-03-31T07:37:42;2.95;;;1.00;;
65572;SDS011;52214;50.940;13.996;2023-03-31T07:40:11;3.70;;;1.03;;
65572;SDS011;52214;50.940;13.996;2023-03-31T07:42:40;3.38;;;1.15;;
65572;SDS011;52214;50.940;13.996;2023-03-31T07:45:06;2.80;;;1.00;;
65572;SDS011;52214;50.940;13.996;2023-03-31T07:47:33;2.90;;;1.20;;
65572;SDS011;52214;50.940;13.996;2023-03-31T07:49:59;3.72;;;1.10;;
65572;SDS011;52214;50.940;13.996;2023-03-31T07:52:25;2.90;;;1.10;;
65572;SDS011;52214;50.940;13.996;2023-03-31T07:54:51;3.15;;;1.20;;
65572;SDS011;52214;50.940;13.996;2023-03-31T07:57:16;2.70;;;1.10;;
65572;SDS011;52214;50.940;13.996;2023-03-31T07:59:45;2.90;;;1.15;;
65572;SDS011;52214;50.940;13.996;2023-03-31T08:02:11;3.53;;;1.33;;
65572;SDS011;52214;50.940;13.996;2023-03-31T08:04:38;3.37;;;1.20;;
65572;SDS011;52214;50.940;13.996;2023-03-31T08:07:06;2.80;;;1.08;;
65572;SDS011;52214;50.940;13.996;2023-03-31T08:09:33;3.00;;;1.20;;
65572;SDS011;52214;50.940;13.996;2023-03-31T08:11:59;3.08;;;1.00;;
65572;SDS011;52214;50.940;13.996;2023-03-31T08:14:25;3.30;;;1.20;;
65572;SDS011;52214;50.940;13.996;2023-03-31T08:16:50;4.13;;;1.10;;
65572;SDS011;52214;50.940;13.996;2023-03-31T08:19:17;3.17;;;1.10;;
65572;SDS011;52214;50.940;13.996;2023-03-31T08:21:43;3.75;;;1.30;;
65572;SDS011;52214;50.940;13.996;2023-03-31T08:24:08;3.53;;;1.30;;
65572;SDS011;52214;50.940;13.996;2023-03-31T08:26:34;3.45;;;1.15;;
65572;SDS011;52214;50.940;13.996;2023-03-31T08:28:59;3.03;;;1.00;;
65572;SDS011;52214;50.940;13.996;2023-03-31T08:31:25;3.70;;;1.17;;
65572;SDS011;52214;50.940;13.996;2023-03-31T08:33:53;3.10;;;1.00;;
65572;SDS011;52214;50.940;13.996;2023-03-31T08:36:19;3.35;;;1.10;;
65572;SDS011;52214;50.940;13.996;2023-03-31T08:38:46;2.80;;;1.00;;
65572;SDS011;52214;50.940;13.996;2023-03-31T08:46:56;3.90;;;1.48;;
65572;SDS011;52214;50.940;13.996;2023-03-31T08:49:26;2.80;;;0.98;;
65572;SDS011;52214;50.940;13.996;2023-03-31T08:51:56;3.28;;;1.10;;
65572;SDS011;52214;50.940;13.996;2023-03-31T08:54:30;3.30;;;1.20;;
65572;SDS011;52214;50.940;13.996;2023-03-31T08:57:02;2.80;;;1.02;;
65572;SDS011;52214;50.940;13.996;2023-03-31T08:59:35;2.60;;;1.10;;
65572;SDS011;52214;50.940;13.996;2023-03-31T09:12:57;3.63;;;1.30;;
65572;SDS011;52214;50.940;13.996;2023-03-31T09:20:45;3.00;;;1.00;;
65572;SDS011;52214;50.940;13.996;2023-03-31T09:23:24;3.22;;;1.27;;
65572;SDS011;52214;50.940;13.996;2023-03-31T09:33:54;3.00;;;1.10;;
65572;SDS011;52214;50.940;13.996;2023-03-31T09:36:25;3.80;;;1.25;;
65572;SDS011;52214;50.940;13.996;2023-03-31T09:38:53;3.10;;;1.15;;
65572;SDS011;52214;50.940;13.996;2023-03-31T09:41:18;3.42;;;1.17;;
65572;SDS011;52214;50.940;13.996;2023-03-31T09:43:45;2.93;;;1.10;;
65572;SDS011;52214;50.940;13.996;2023-03-31T09:46:16;4.00;;;1.15;;
65572;SDS011;52214;50.940;13.996;2023-03-31T09:48:54;3.28;;;1.30;;
65572;SDS011;52214;50.940;13.996;2023-03-31T09:51:26;3.50;;;1.10;;
65572;SDS011;52214;50.940;13.996;2023-03-31T09:54:06;2.80;;;1.00;;
65572;SDS011;52214;50.940;13.996;2023-03-31T09:59:14;2.90;;;0.90;;
65572;SDS011;52214;50.940;13.996;2023-03-31T10:01:42;3.45;;;1.30;;
65572;SDS011;52214;50.940;13.996;2023-03-31T10:04:14;2.85;;;1.10;;
65572;SDS011;52214;50.940;13.996;2023-03-31T10:06:46;3.55;;;1.17;;
65572;SDS011;52214;50.940;13.996;2023-03-31T10:09:13;2.60;;;0.90;;
65572;SDS011;52214;50.940;13.996;2023-03-31T10:11:50;3.00;;;1.20;;
65572;SDS011;52214;50.940;13.996;2023-03-31T10:14:25;3.15;;;1.20;;
65572;SDS011;52214;50.940;13.996;2023-03-31T10:16:58;2.50;;;0.93;;
65572;SDS011;52214;50.940;13.996;2023-03-31T10:19:31;2.83;;;1.17;;
65572;SDS011;52214;50.940;13.996;2023-03-31T10:22:00;2.80;;;1.00;;
65572;SDS011;52214;50.940;13.996;2023-03-31T10:24:38;2.83;;;1.10;;
65572;SDS011;52214;50.940;13.996;2023-03-31T10:27:13;2.90;;;1.02;;
65572;SDS011;52214;50.940;13.996;2023-03-31T10:29:57;2.80;;;1.10;;
65572;SDS011;52214;50.940;13.996;2023-03-31T10:32:27;4.70;;;1.60;;
65572;SDS011;52214;50.940;13.996;2023-03-31T10:34:55;5.30;;;1.93;;
65572;SDS011;52214;50.940;13.996;2023-03-31T10:37:22;4.28;;;1.90;;
65572;SDS011;52214;50.940;13.996;2023-03-31T10:47:38;4.35;;;1.67;;
65572;SDS011;52214;50.940;13.996;2023-03-31T10:50:13;4.18;;;1.60;;
65572;SDS011;52214;50.940;13.996;2023-03-31T10:52:44;4.47;;;1.92;;
65572;SDS011;52214;50.940;13.996;2023-03-31T10:55:12;5.87;;;2.00;;
65572;SDS011;52214;50.940;13.996;2023-03-31T10:57:48;4.28;;;1.80;;
65572;SDS011;52214;50.940;13.996;2023-03-31T11:00:26;4.32;;;2.10;;
65572;SDS011;52214;50.940;13.996;2023-03-31T11:03:00;4.63;;;1.80;;
65572;SDS011;52214;50.940;13.996;2023-03-31T11:05:48;4.50;;;2.13;;
65572;SDS011;52214;50.940;13.996;2023-03-31T11:16:15;4.50;;;1.70;;
65572;SDS011;52214;50.940;13.996;2023-03-31T11:18:52;3.78;;;1.85;;
65572;SDS011;52214;50.940;13.996;2023-03-31T11:40:55;3.72;;;1.80;;
65572;SDS011;52214;50.940;13.996;2023-03-31T11:59:24;4.88;;;1.50;;
65572;SDS011;52214;50.940;13.996;2023-03-31T12:01:58;4.73;;;2.00;;
65572;SDS011;52214;50.940;13.996;2023-03-31T12:04:45;4.43;;;1.77;;
65572;SDS011;52214;50.940;13.996;2023-03-31T12:07:23;4.40;;;1.58;;
65572;SDS011;52214;50.940;13.996;2023-03-31T12:20:36;4.30;;;1.70;;
65572;SDS011;52214;50.940;13.996;2023-03-31T12:23:10;4.25;;;1.67;;
65572;SDS011;52214;50.940;13.996;2023-03-31T12:25:44;5.05;;;1.75;;
65572;SDS011;52214;50.940;13.996;2023-03-31T12:28:18;3.88;;;1.67;;
65572;SDS011;52214;50.940;13.996;2023-03-31T12:30:45;4.30;;;1.80;;
65572;SDS011;52214;50.940;13.996;2023-03-31T12:41:23;3.35;;;1.42;;
65572;SDS011;52214;50.940;13.996;2023-03-31T12:49:54;4.15;;;1.80;;
65572;SDS011;52214;50.940;13.996;2023-03-31T12:55:32;3.42;;;1.65;;
65572;SDS011;52214;50.940;13.996;2023-03-31T13:14:05;4.00;;;1.60;;
65572;SDS011;52214;50.940;13.996;2023-03-31T13:16:43;3.00;;;1.20;;
65572;SDS011;52214;50.940;13.996;2023-03-31T13:19:11;3.58;;;1.55;;
65572;SDS011;52214;50.940;13.996;2023-03-31T13:21:52;3.58;;;1.50;;
65572;SDS011;52214;50.940;13.996;2023-03-31T13:24:21;3.50;;;1.50;;
65572;SDS011;52214;50.940;13.996;2023-03-31T13:26:49;3.73;;;1.47;;
65572;SDS011;52214;50.940;13.996;2023-03-31T13:29:20;4.35;;;1.40;;
65572;SDS011;52214;50.940;13.996;2023-03-31T13:32:04;4.15;;;1.35;;
65572;SDS011;52214;50.940;13.996;2023-03-31T13:34:33;3.38;;;1.40;;
65572;SDS011;52214;50.940;13.996;2023-03-31T13:51:25;3.05;;;1.40;;
65572;SDS011;52214;50.940;13.996;2023-03-31T13:54:09;3.40;;;1.50;;
65572;SDS011;52214;50.940;13.996;2023-03-31T13:59:48;4.30;;;1.40;;
65572;SDS011;52214;50.940;13.996;2023-03-31T14:10:36;3.78;;;1.30;;
65572;SDS011;52214;50.940;13.996;2023-03-31T14:13:06;2.95;;;1.30;;
65572;SDS011;52214;50.940;13.996;2023-03-31T14:15:34;3.60;;;1.30;;
65572;SDS011;52214;50.940;13.996;2023-03-31T14:18:03;3.40;;;1.50;;
65572;SDS011;52214;50.940;13.996;2023-03-31T14:20:31;3.43;;;1.27;;
65572;SDS011;52214;50.940;13.996;2023-03-31T14:23:24;2.90;;;1.30;;
65572;SDS011;52214;50.940;13.996;2023-03-31T14:26:04;3.47;;;1.60;;
65572;SDS011;52214;50.940;13.996;2023-03-31T14:29:12;3.00;;;1.30;;
65572;SDS011;52214;50.940;13.996;2023-03-31T14:34:38;2.90;;;1.20;;
65572;SDS011;52214;50.940;13.996;2023-03-31T14:37:08;3.92;;;1.42;;
65572;SDS011;52214;50.940;13.996;2023-03-31T14:39:40;3.50;;;1.23;;
65572;SDS011;52214;50.940;13.996;2023-03-31T14:42:10;3.78;;;1.40;;
65572;SDS011;52214;50.940;13.996;2023-03-31T14:44:40;3.58;;;1.40;;
65572;SDS011;52214;50.940;13.996;2023-03-31T14:47:12;3.40;;;1.20;;
65572;SDS011;52214;50.940;13.996;2023-03-31T14:49:41;3.25;;;1.27;;
65572;SDS011;52214;50.940;13.996;2023-03-31T14:52:22;3.00;;;1.35;;
65572;SDS011;52214;50.940;13.996;2023-03-31T14:54:48;3.10;;;1.40;;
65572;SDS011;52214;50.940;13.996;2023-03-31T14:57:18;3.25;;;1.10;;
65572;SDS011;52214;50.940;13.996;2023-03-31T14:59:49;3.07;;;1.13;;
65572;SDS011;52214;50.940;13.996;2023-03-31T15:02:18;3.58;;;1.27;;
65572;SDS011;52214;50.940;13.996;2023-03-31T15:04:54;3.25;;;1.35;;
65572;SDS011;52214;50.940;13.996;2023-03-31T15:07:21;3.00;;;1.30;;
65572;SDS011;52214;50.940;13.996;2023-03-31T15:09:49;3.35;;;1.40;;
65572;SDS011;52214;50.940;13.996;2023-03-31T15:12:16;2.80;;;1.10;;
65572;SDS011;52214;50.940;13.996;2023-03-31T15:14:46;3.00;;;1.33;;
65572;SDS011;52214;50.940;13.996;2023-03-31T15:17:24;3.05;;;1.33;;
65572;SDS011;52214;50.940;13.996;2023-03-31T15:19:55;3.35;;;1.30;;
65572;SDS011;52214;50.940;13.996;2023-03-31T15:22:23;2.95;;;1.20;;
65572;SDS011;52214;50.940;13.996;2023-03-31T15:24:52;3.47;;;1.20;;
65572;SDS011;52214;50.940;13.996;2023-03-31T15:27:23;3.17;;;1.00;;
65572;SDS011;52214;50.940;13.996;2023-03-31T15:29:59;3.38;;;1.20;;
65572;SDS011;52214;50.940;13.996;2023-03-31T15:32:28;3.05;;;1.30;;
65572;SDS011;52214;50.940;13.996;2023-03-31T15:34:55;3.08;;;1.10;;
65572;SDS011;52214;50.940;13.996;2023-03-31T15:37:30;2.67;;;1.10;;
65572;SDS011;52214;50.940;13.996;2023-03-31T15:40:08;3.60;;;1.20;;
65572;SDS011;52214;50.940;13.996;2023-03-31T15:42:54;3.22;;;1.20;;
65572;SDS011;52214;50.940;13.996;2023-03-31T15:45:35;3.28;;;1.38;;
65572;SDS011;52214;50.940;13.996;2023-03-31T15:48:05;3.42;;;1.42;;
65572;SDS011;52214;50.940;13.996;2023-03-31T15:50:38;3.00;;;1.20;;
65572;SDS011;52214;50.940;13.996;2023-03-31T15:53:18;2.85;;;1.05;;
65572;SDS011;52214;50.940;13.996;2023-03-31T15:55:49;2.90;;;1.08;;
65572;SDS011;52214;50.940;13.996;2023-03-31T15:58:19;2.90;;;1.17;;
65572;SDS011;52214;50.940;13.996;2023-03-31T16:01:08;3.83;;;1.50;;
65572;SDS011;52214;50.940;13.996;2023-03-31T16:03:37;2.72;;;1.13;;
65572;SDS011;52214;50.940;13.996;2023-03-31T16:06:05;2.60;;;1.00;;
65572;SDS011;52214;50.940;13.996;2023-03-31T16:08:36;2.72;;;0.90;;
65572;SDS011;52214;50.940;13.996;2023-03-31T16:11:08;2.80;;;1.20;;
65572;SDS011;52214;50.940;13.996;2023-03-31T16:13:45;2.80;;;1.10;;
65572;SDS011;52214;50.940;13.996;2023-03-31T16:16:16;3.03;;;1.20;;
65572;SDS011;52214;50.940;13.996;2023-03-31T16:18:46;3.08;;;1.25;;
65572;SDS011;52214;50.940;13.996;2023-03-31T16:28:56;2.70;;;1.10;;
65572;SDS011;52214;50.940;13.996;2023-03-31T16:31:26;3.90;;;1.30;;
65572;SDS011;52214;50.940;13.996;2023-03-31T16:33:55;2.95;;;1.10;;
65572;SDS011;52214;50.940;13.996;2023-03-31T16:36:21;3.08;;;1.20;;
65572;SDS011;52214;50.940;13.996;2023-03-31T16:38:50;3.10;;;1.20;;
65572;SDS011;52214;50.940;13.996;2023-03-31T16:41:17;2.80;;;1.20;;
65572;SDS011;52214;50.940;13.996;2023-03-31T16:43:43;2.80;;;1.10;;
65572;SDS011;52214;50.940;13.996;2023-03-31T16:46:10;2.83;;;1.10;;
65572;SDS011;52214;50.940;13.996;2023-03-31T16:48:36;2.80;;;1.10;;
65572;SDS011;52214;50.940;13.996;2023-03-31T16:51:02;3.13;;;1.15;;
65572;SDS011;52214;50.940;13.996;2023-03-31T16:53:29;2.60;;;1.02;;
65572;SDS011;52214;50.940;13.996;2023-03-31T16:55:58;2.70;;;1.00;;
65572;SDS011;52214;50.940;13.996;2023-03-31T16:58:24;3.83;;;1.10;;
65572;SDS011;52214;50.940;13.996;2023-03-31T17:00:52;3.17;;;1.40;;
65572;SDS011;52214;50.940;13.996;2023-03-31T17:03:18;2.80;;;1.00;;
65572;SDS011;52214;50.940;13.996;2023-03-31T17:05:45;3.05;;;1.13;;
65572;SDS011;52214;50.940;13.996;2023-03-31T17:08:14;2.60;;;1.00;;
65572;SDS011;52214;50.940;13.996;2023-03-31T17:10:40;2.93;;;1.20;;
65572;SDS011;52214;50.940;13.996;2023-03-31T17:13:07;2.92;;;1.10;;
65572;SDS011;52214;50.940;13.996;2023-03-31T17:15:33;2.92;;;1.08;;
65572;SDS011;52214;50.940;13.996;2023-03-31T17:18:01;2.72;;;1.10;;
65572;SDS011;52214;50.940;13.996;2023-03-31T17:20:27;3.67;;;1.10;;
65572;SDS011;52214;50.940;13.996;2023-03-31T17:22:53;2.80;;;1.20;;
65572;SDS011;52214;50.940;13.996;2023-03-31T17:25:19;2.40;;;0.90;;
65572;SDS011;52214;50.940;13.996;2023-03-31T17:27:45;2.70;;;1.00;;
65572;SDS011;52214;50.940;13.996;2023-03-31T17:30:12;2.73;;;1.03;;
65572;SDS011;52214;50.940;13.996;2023-03-31T17:32:38;3.20;;;1.17;;
65572;SDS011;52214;50.940;13.996;2023-03-31T17:35:05;2.80;;;1.17;;
65572;SDS011;52214;50.940;13.996;2023-03-31T17:37:32;2.97;;;1.25;;
65572;SDS011;52214;50.940;13.996;2023-03-31T17:39:58;2.83;;;1.13;;
65572;SDS011;52214;50.940;13.996;2023-03-31T17:42:24;2.72;;;1.10;;
65572;SDS011;52214;50.940;13.996;2023-03-31T17:44:50;2.97;;;1.05;;
65572;SDS011;52214;50.940;13.996;2023-03-31T17:47:16;2.77;;;1.10;;
65572;SDS011;52214;50.940;13.996;2023-03-31T17:49:43;2.85;;;1.10;;
65572;SDS011;52214;50.940;13.996;2023-03-31T17:52:08;2.70;;;1.00;;
65572;SDS011;52214;50.940;13.996;2023-03-31T17:54:35;2.70;;;1.10;;
65572;SDS011;52214;50.940;13.996;2023-03-31T17:57:01;3.33;;;1.00;;
65572;SDS011;52214;50.940;13.996;2023-03-31T17:59:29;3.00;;;1.00;;
65572;SDS011;52214;50.940;13.996;2023-03-31T18:01:54;2.75;;;1.10;;
65572;SDS011;52214;50.940;13.996;2023-03-31T18:04:20;2.93;;;1.10;;
65572;SDS011;52214;50.940;13.996;2023-03-31T18:06:46;2.90;;;1.20;;
65572;SDS011;52214;50.940;13.996;2023-03-31T18:09:13;2.90;;;1.27;;
65572;SDS011;52214;50.940;13.996;2023-03-31T18:11:39;2.70;;;1.10;;
65572;SDS011;52214;50.940;13.996;2023-03-31T18:14:05;3.03;;;1.10;;
65572;SDS011;52214;50.940;13.996;2023-03-31T18:16:32;2.78;;;1.10;;
65572;SDS011;52214;50.940;13.996;2023-03-31T18:18:58;3.33;;;1.15;;
65572;SDS011;52214;50.940;13.996;2023-03-31T18:21:24;3.03;;;1.20;;
65572;SDS011;52214;50.940;13.996;2023-03-31T18:23:50;3.00;;;1.13;;
65572;SDS011;52214;50.940;13.996;2023-03-31T18:26:19;3.95;;;1.10;;
65572;SDS011;52214;50.940;13.996;2023-03-31T18:28:48;3.10;;;1.30;;
65572;SDS011;52214;50.940;13.996;2023-03-31T18:31:14;3.10;;;1.30;;